createdAt,value
2019-05-16T00:00:40.366Z,97888.13
2019-05-16T00:02:39.683Z,97881.66
2019-05-16T00:04:41.324Z,97880.81
2019-05-16T00:06:42.908Z,97880.02
2019-05-16T00:08:44.507Z,97862.25
2019-05-16T00:10:48.346Z,97867.36
2019-05-16T00:12:48.676Z,97864.46
2019-05-16T00:14:49.540Z,97865.36
2019-05-16T00:16:51.127Z,97862.75
2019-05-16T00:18:52.717Z,97862.39
2019-05-16T00:20:54.310Z,97859.40
2019-05-16T00:22:55.910Z,97858.05
2019-05-16T00:24:57.975Z,97859.74
2019-05-16T00:26:59.159Z,97863.51
2019-05-16T00:29:00.768Z,97864.77
2019-05-16T00:31:02.356Z,97864.35
2019-05-16T00:33:03.972Z,97857.77
2019-05-16T00:35:05.577Z,97856.83
2019-05-16T00:37:08.637Z,97851.73
2019-05-16T00:39:08.820Z,97846.54
2019-05-16T00:41:10.436Z,97852.80
2019-05-16T00:43:12.049Z,97848.58
2019-05-16T00:45:13.664Z,97845.16
2019-05-16T00:47:17.696Z,97839.71
2019-05-16T00:49:18.676Z,97838.44
2019-05-16T00:51:18.702Z,97841.44
2019-05-16T00:53:20.288Z,97837.22
2019-05-16T00:55:21.883Z,97826.59
2019-05-16T00:57:23.531Z,97830.86
2019-05-16T00:59:25.183Z,97832.55
2019-05-16T01:01:28.258Z,97823.53
2019-05-16T01:03:29.105Z,97813.37
2019-05-16T01:05:30.105Z,97813.27
2019-05-16T01:07:31.720Z,97814.13
2019-05-16T01:09:33.319Z,97810.22
2019-05-16T01:11:34.913Z,97808.52
2019-05-16T01:13:38.080Z,97796.64
2019-05-16T01:15:38.177Z,97795.82
2019-05-16T01:17:39.772Z,97792.83
2019-05-16T01:19:41.365Z,97792.89
2019-05-16T01:21:42.948Z,97794.23
2019-05-16T01:23:44.556Z,97792.91
2019-05-16T01:25:48.113Z,97787.34
2019-05-16T01:27:47.822Z,97786.45
2019-05-16T01:29:49.449Z,97781.29
2019-05-16T01:31:51.046Z,97780.02
2019-05-16T01:33:52.687Z,97747.59
2019-05-16T01:35:54.297Z,97766.03
2019-05-16T01:37:57.965Z,97768.27
2019-05-16T01:39:58.732Z,97768.62
2019-05-16T01:41:59.217Z,97759.14
2019-05-16T01:44:00.814Z,97763.84
2019-05-16T01:46:02.410Z,97754.70
2019-05-16T01:48:04.005Z,97753.00
2019-05-16T01:50:05.616Z,97749.51
2019-05-16T01:52:08.450Z,97749.48
2019-05-16T01:54:08.896Z,97748.91
2019-05-16T01:56:10.480Z,97751.30
2019-05-16T01:58:12.106Z,97744.74
2019-05-16T02:00:13.716Z,97744.14
2019-05-16T02:02:15.328Z,97744.89
2019-05-16T02:04:18.343Z,97737.16
2019-05-16T02:06:18.645Z,97740.48
2019-05-16T02:08:20.234Z,97735.27
2019-05-16T02:10:21.988Z,97736.03
2019-05-16T02:12:23.586Z,97728.28
2019-05-16T02:14:25.186Z,97732.53
2019-05-16T02:16:27.890Z,97735.45
2019-05-16T02:18:28.869Z,97739.72
2019-05-16T02:20:30.121Z,97731.12
2019-05-16T02:22:31.753Z,97734.44
2019-05-16T02:24:33.340Z,97729.79
2019-05-16T02:26:34.988Z,97739.13
2019-05-16T02:28:40.196Z,97743.52
2019-05-16T02:30:41.941Z,97738.80
2019-05-16T02:32:41.714Z,97743.65
2019-05-16T02:34:41.904Z,97745.08
2019-05-16T02:36:43.363Z,97742.72
2019-05-16T02:38:44.985Z,97741.08
2019-05-16T02:40:46.578Z,97748.43
2019-05-16T02:42:51.226Z,97748.56
2019-05-16T02:44:51.177Z,97746.38
2019-05-16T02:46:51.577Z,97733.94
2019-05-16T02:48:53.188Z,97729.29
2019-05-16T02:50:54.783Z,97717.66
2019-05-16T02:52:56.395Z,97712.94
2019-05-16T02:55:00.737Z,97706.14
2019-05-16T02:57:01.385Z,97703.53
2019-05-16T02:59:01.842Z,97702.95
2019-05-16T03:01:03.024Z,97700.73
2019-05-16T03:03:04.631Z,97690.62
2019-05-16T03:05:06.273Z,97683.77
2019-05-16T03:07:11.425Z,97688.38
2019-05-16T03:09:11.340Z,97682.75
2019-05-16T03:11:11.872Z,97685.72
2019-05-16T03:13:12.811Z,97674.20
2019-05-16T03:15:14.443Z,97666.84
2019-05-16T03:17:16.047Z,97661.67
2019-05-16T03:19:17.642Z,97651.78
2019-05-16T03:21:21.672Z,97649.56
2019-05-16T03:23:21.743Z,97655.58
2019-05-16T03:25:22.571Z,97659.86
2019-05-16T03:27:24.183Z,97656.47
2019-05-16T03:29:25.772Z,97649.97
2019-05-16T03:31:27.376Z,97647.49
2019-05-16T03:33:39.024Z,97656.43
2019-05-16T03:35:33.939Z,97645.44
2019-05-16T03:37:49.500Z,97646.37
2019-05-16T03:39:34.005Z,97654.92
2019-05-16T03:41:35.608Z,97650.27
2019-05-16T03:43:37.220Z,97650.31
2019-05-16T03:45:41.801Z,97651.91
2019-05-16T03:47:42.824Z,97650.66
2019-05-16T03:49:42.393Z,97645.91
2019-05-16T03:51:43.821Z,97637.86
2019-05-16T03:53:45.432Z,97633.61
2019-05-16T03:55:47.094Z,97614.61
2019-05-16T03:57:51.394Z,97643.59
2019-05-16T03:59:51.747Z,97643.59
2019-05-16T04:01:52.038Z,97641.11
2019-05-16T04:03:53.665Z,97641.05
2019-05-16T04:05:55.310Z,97638.53
2019-05-16T04:08:13.954Z,97648.34
2019-05-16T04:10:01.903Z,97652.28
2019-05-16T04:12:01.819Z,97646.23
2019-05-16T04:14:01.907Z,97644.98
2019-05-16T04:16:03.517Z,97611.25
2019-05-16T04:18:05.120Z,97648.22
2019-05-16T04:20:06.723Z,97632.19
2019-05-16T04:22:10.444Z,97633.89
2019-05-16T04:24:12.141Z,97639.03
2019-05-16T04:26:11.695Z,97645.27
2019-05-16T04:28:13.314Z,97633.04
2019-05-16T04:30:14.929Z,97606.55
2019-05-16T04:32:16.582Z,97623.47
2019-05-16T04:34:20.624Z,97623.73
2019-05-16T04:36:21.323Z,97628.67
2019-05-16T04:38:31.677Z,97627.20
2019-05-16T04:40:23.216Z,97624.85
2019-05-16T04:42:24.858Z,97626.50
2019-05-16T04:44:26.456Z,97629.94
2019-05-16T04:46:31.108Z,97619.94
2019-05-16T04:48:31.055Z,97612.53
2019-05-16T04:50:31.457Z,97605.95
2019-05-16T04:52:33.101Z,97605.85
2019-05-16T04:54:34.713Z,97607.00
2019-05-16T04:56:36.383Z,97612.83
2019-05-16T04:58:40.545Z,97620.91
2019-05-16T05:00:42.023Z,97621.36
2019-05-16T05:02:42.118Z,97629.43
2019-05-16T05:04:42.985Z,97623.55
2019-05-16T05:06:44.600Z,97624.53
2019-05-16T05:08:54.472Z,97619.05
2019-05-16T05:10:50.983Z,97616.87
2019-05-16T05:12:51.616Z,97618.56
2019-05-16T05:14:51.292Z,97618.05
2019-05-16T05:16:52.916Z,97623.67
2019-05-16T05:18:54.514Z,97623.75
2019-05-16T05:20:56.132Z,97631.44
2019-05-16T05:22:57.725Z,97625.95
2019-05-16T05:25:00.139Z,97630.25
2019-05-16T05:27:01.892Z,97640.13
2019-05-16T05:29:03.498Z,97641.03
2019-05-16T05:31:05.173Z,97637.34
2019-05-16T05:33:06.775Z,97640.35
2019-05-16T05:35:10.570Z,97631.48
2019-05-16T05:37:12.571Z,97637.03
2019-05-16T05:39:15.336Z,97633.70
2019-05-16T05:41:13.387Z,97637.03
2019-05-16T05:43:15.032Z,97634.63
2019-05-16T05:45:16.627Z,97636.08
2019-05-16T05:47:19.964Z,97641.56
2019-05-16T05:49:20.449Z,97633.97
2019-05-16T05:51:21.584Z,97634.41
2019-05-16T05:53:23.187Z,97627.49
2019-05-16T05:55:24.798Z,97636.03
2019-05-16T05:57:26.481Z,97636.78
2019-05-16T05:59:30.447Z,97630.53
2019-05-16T06:01:31.448Z,97638.37
2019-05-16T06:03:32.951Z,97626.52
2019-05-16T06:05:33.012Z,97625.52
2019-05-16T06:07:34.650Z,97622.02
2019-05-16T06:09:49.779Z,97621.02
2019-05-16T06:11:37.904Z,97625.16
2019-05-16T06:13:40.477Z,97631.01
2019-05-16T06:15:41.154Z,97619.07
2019-05-16T06:17:42.754Z,97617.25
2019-05-16T06:19:44.349Z,97620.57
2019-05-16T06:21:46.176Z,97623.05
2019-05-16T06:23:47.806Z,97622.86
2019-05-16T06:25:50.461Z,97630.44
2019-05-16T06:27:51.286Z,97622.73
2019-05-16T06:29:52.796Z,97625.62
2019-05-16T06:31:54.407Z,97627.76
2019-05-16T06:33:56.017Z,97629.16
2019-05-16T06:36:00.092Z,97629.46
2019-05-16T06:38:00.634Z,97625.12
2019-05-16T06:40:01.037Z,97622.48
2019-05-16T06:42:02.638Z,97619.53
2019-05-16T06:44:04.234Z,97618.17
2019-05-16T06:46:05.833Z,97615.29
2019-05-16T06:48:07.458Z,97615.27
2019-05-16T06:50:11.371Z,97627.61
2019-05-16T06:52:10.725Z,97628.55
2019-05-16T06:54:12.322Z,97626.52
2019-05-16T06:56:13.921Z,97630.42
2019-05-16T06:58:15.524Z,97632.59
2019-05-16T07:00:17.134Z,97633.86
2019-05-16T07:02:29.644Z,97634.44
2019-05-16T07:04:20.422Z,97629.70
2019-05-16T07:06:45.499Z,97624.91
2019-05-16T07:08:23.692Z,97622.25
2019-05-16T07:10:25.287Z,97619.81
2019-05-16T07:12:26.915Z,97617.70
2019-05-16T07:14:31.255Z,97624.25
2019-05-16T07:16:30.194Z,97622.31
2019-05-16T07:18:31.785Z,97626.73
2019-05-16T07:20:33.379Z,97623.45
2019-05-16T07:22:35.020Z,97625.97
2019-05-16T07:24:36.648Z,97626.42
2019-05-16T07:26:40.351Z,97624.80
2019-05-16T07:28:40.632Z,97623.42
2019-05-16T07:30:41.588Z,97625.15
2019-05-16T07:32:43.223Z,97625.13
2019-05-16T07:34:44.818Z,97620.00
2019-05-16T07:36:46.426Z,97654.03
2019-05-16T07:38:48.009Z,97633.07
2019-05-16T07:40:51.137Z,97629.20
2019-05-16T07:42:51.328Z,97634.17
2019-05-16T07:44:52.979Z,97623.01
2019-05-16T07:46:54.617Z,97627.14
2019-05-16T07:48:56.233Z,97633.73
2019-05-16T07:51:00.378Z,97625.00
2019-05-16T07:53:00.038Z,97616.79
2019-05-16T07:55:03.946Z,97584.05
2019-05-16T07:57:18.627Z,97613.69
2019-05-16T07:59:04.572Z,97609.11
2019-05-16T08:01:09.055Z,97609.27
2019-05-16T08:03:10.314Z,97602.64
2019-05-16T08:05:10.247Z,97607.05
2019-05-16T08:07:11.217Z,97606.60
2019-05-16T08:09:13.118Z,97611.67
2019-05-16T08:11:14.447Z,97604.69
2019-05-16T08:13:17.843Z,97599.05
2019-05-16T08:15:20.245Z,97600.24
2019-05-16T08:17:21.643Z,97598.59
2019-05-16T08:19:24.945Z,97595.12
2019-05-16T08:21:22.727Z,97594.75
2019-05-16T08:23:24.327Z,97591.97
2019-05-16T08:25:25.968Z,97594.58
2019-05-16T08:27:30.487Z,97592.28
2019-05-16T08:29:31.722Z,97585.03
2019-05-16T08:31:31.893Z,97595.08
2019-05-16T08:33:32.536Z,97592.37
2019-05-16T08:35:34.168Z,97595.09
2019-05-16T08:37:42.563Z,97594.14
2019-05-16T08:39:37.429Z,97606.92
2019-05-16T08:41:42.154Z,97607.67
2019-05-16T08:43:41.379Z,97607.87
2019-05-16T08:45:42.368Z,97611.55
2019-05-16T08:47:43.975Z,97607.87
2019-05-16T08:49:45.577Z,97610.00
2019-05-16T08:51:47.163Z,97602.79
2019-05-16T08:53:50.444Z,97600.34
2019-05-16T08:55:50.794Z,97601.24
2019-05-16T08:57:53.150Z,97595.05
2019-05-16T08:59:53.804Z,97597.81
2019-05-16T09:01:58.113Z,97590.50
2019-05-16T09:04:01.198Z,97578.89
2019-05-16T09:06:02.594Z,97581.98
2019-05-16T09:08:01.028Z,97582.09
2019-05-16T09:10:02.100Z,97577.75
2019-05-16T09:12:03.711Z,97583.12
2019-05-16T09:14:07.926Z,97578.37
2019-05-16T09:16:07.840Z,97581.30
2019-05-16T09:18:08.630Z,97577.86
2019-05-16T09:20:10.234Z,97584.03
2019-05-16T09:22:11.850Z,97581.15
2019-05-16T09:24:13.436Z,97574.77
2019-05-16T09:26:18.738Z,97575.98
2019-05-16T09:28:16.981Z,97577.05
2019-05-16T09:30:18.378Z,97572.68
2019-05-16T09:32:21.705Z,97569.72
2019-05-16T09:34:21.664Z,97570.30
2019-05-16T09:36:23.268Z,97573.99
2019-05-16T09:38:28.075Z,97576.28
2019-05-16T09:40:27.809Z,97575.04
2019-05-16T09:42:28.213Z,97581.51
2019-05-16T09:44:29.888Z,97581.98
2019-05-16T09:46:31.482Z,97581.94
2019-05-16T09:48:33.078Z,97584.82
2019-05-16T09:50:34.712Z,97586.56
2019-05-16T09:52:36.476Z,97589.20
2019-05-16T09:54:38.103Z,97586.56
2019-05-16T09:56:39.669Z,97588.16
2019-05-16T09:58:41.285Z,97590.13
2019-05-16T10:00:42.917Z,97590.13
2019-05-16T10:02:47.315Z,97591.78
2019-05-16T10:04:47.364Z,97585.23
2019-05-16T10:06:47.893Z,97586.08
2019-05-16T10:08:49.507Z,97590.31
2019-05-16T10:10:51.142Z,97582.25
2019-05-16T10:12:52.752Z,97585.15
2019-05-16T10:14:54.372Z,97584.80
2019-05-16T10:16:57.847Z,97589.34
2019-05-16T10:18:57.603Z,97586.84
2019-05-16T10:20:59.430Z,97589.48
2019-05-16T10:23:01.000Z,97581.73
2019-05-16T10:25:02.614Z,97575.77
2019-05-16T10:27:06.448Z,97582.15
2019-05-16T10:29:10.429Z,97574.39
2019-05-16T10:31:07.678Z,97577.95
2019-05-16T10:33:09.292Z,97580.70
2019-05-16T10:35:10.931Z,97573.70
2019-05-16T10:37:12.683Z,97572.49
2019-05-16T10:39:14.287Z,97569.13
2019-05-16T10:41:15.886Z,97578.27
2019-05-16T10:43:17.537Z,97580.08
2019-05-16T10:45:19.128Z,97572.41
2019-05-16T10:47:20.892Z,97566.50
2019-05-16T10:49:36.582Z,97567.29
2019-05-16T10:51:24.228Z,97561.75
2019-05-16T10:53:53.765Z,97568.63
2019-05-16T10:55:27.851Z,97555.52
2019-05-16T10:57:29.937Z,97562.02
2019-05-16T10:59:57.904Z,97562.03
2019-05-16T11:01:32.581Z,97564.13
2019-05-16T11:03:34.245Z,97555.28
2019-05-16T11:05:38.855Z,97556.21
2019-05-16T11:07:37.688Z,97558.35
2019-05-16T11:09:39.549Z,97554.14
2019-05-16T11:11:40.863Z,97548.20
2019-05-16T11:13:42.473Z,97550.76
2019-05-16T11:15:44.074Z,97551.07
2019-05-16T11:17:45.731Z,97550.05
2019-05-16T11:19:47.333Z,97553.69
2019-05-16T11:21:48.956Z,97556.95
2019-05-16T11:23:50.551Z,97558.23
2019-05-16T11:25:55.238Z,97554.11
2019-05-16T11:27:53.840Z,97551.20
2019-05-16T11:29:56.640Z,97553.58
2019-05-16T11:31:57.453Z,97555.21
2019-05-16T11:33:58.796Z,97593.27
2019-05-16T11:36:00.531Z,97556.47
2019-05-16T11:38:02.218Z,97558.61
2019-05-16T11:40:03.813Z,97553.52
2019-05-16T11:42:07.729Z,97554.37
2019-05-16T11:44:07.159Z,97564.17
2019-05-16T11:46:08.772Z,97553.20
2019-05-16T11:48:10.420Z,97551.56
2019-05-16T11:50:12.017Z,97552.06
2019-05-16T11:52:13.633Z,97555.09
2019-05-16T11:54:15.226Z,97561.97
2019-05-16T11:56:16.818Z,97558.98
2019-05-16T11:58:18.456Z,97562.48
2019-05-16T12:00:20.049Z,97557.05
2019-05-16T12:02:21.711Z,97544.23
2019-05-16T12:04:23.316Z,97566.89
2019-05-16T12:06:26.804Z,97558.83
2019-05-16T12:08:26.626Z,97563.14
2019-05-16T12:10:28.222Z,97564.52
2019-05-16T12:12:29.837Z,97564.09
2019-05-16T12:14:31.516Z,97562.78
2019-05-16T12:16:33.114Z,97563.72
2019-05-16T12:18:37.132Z,97556.92
2019-05-16T12:20:36.534Z,97555.65
2019-05-16T12:22:38.161Z,97550.95
2019-05-16T12:24:41.493Z,97551.81
2019-05-16T12:26:41.419Z,97528.81
2019-05-16T12:28:43.048Z,97553.14
2019-05-16T12:30:46.973Z,97548.04
2019-05-16T12:32:47.051Z,97543.80
2019-05-16T12:34:48.000Z,97542.02
2019-05-16T12:36:49.621Z,97544.66
2019-05-16T12:38:51.280Z,97550.29
2019-05-16T12:40:52.892Z,97548.16
2019-05-16T12:42:57.162Z,97549.82
2019-05-16T12:44:56.393Z,97548.08
2019-05-16T12:46:57.809Z,97548.48
2019-05-16T12:48:59.408Z,97551.03
2019-05-16T12:51:01.080Z,97552.72
2019-05-16T12:53:02.683Z,97546.74
2019-05-16T12:55:04.328Z,97553.52
2019-05-16T12:57:05.927Z,97558.62
2019-05-16T12:59:07.536Z,97554.79
2019-05-16T13:01:09.147Z,97554.77
2019-05-16T13:03:10.733Z,97553.01
2019-05-16T13:05:12.339Z,97554.33
2019-05-16T13:07:13.994Z,97551.80
2019-05-16T13:09:18.274Z,97556.97
2019-05-16T13:11:17.763Z,97556.97
2019-05-16T13:13:18.944Z,97556.59
2019-05-16T13:15:20.559Z,97556.84
2019-05-16T13:17:22.154Z,97553.49
2019-05-16T13:19:23.852Z,97546.66
2019-05-16T13:21:27.517Z,97551.78
2019-05-16T13:23:27.148Z,97554.79
2019-05-16T13:25:28.788Z,97552.25
2019-05-16T13:27:30.396Z,97545.80
2019-05-16T13:29:32.017Z,97547.13
2019-05-16T13:31:33.609Z,97542.02
2019-05-16T13:33:36.795Z,97542.06
2019-05-16T13:35:37.237Z,97539.95
2019-05-16T13:37:38.521Z,97544.30
2019-05-16T13:39:40.118Z,97536.22
2019-05-16T13:41:41.764Z,97539.63
2019-05-16T13:43:43.380Z,97535.00
2019-05-16T13:45:47.141Z,97537.55
2019-05-16T13:47:48.550Z,97541.41
2019-05-16T13:49:48.426Z,97538.86
2019-05-16T13:51:50.034Z,97538.51
2019-05-16T13:53:51.640Z,97537.41
2019-05-16T13:55:53.277Z,97533.23
2019-05-16T13:57:54.914Z,97526.18
2019-05-16T13:59:56.829Z,97531.87
2019-05-16T14:01:58.192Z,97534.55
2019-05-16T14:03:59.816Z,97536.34
2019-05-16T14:06:01.433Z,97537.70
2019-05-16T14:08:03.054Z,97534.80
2019-05-16T14:10:04.664Z,97545.85
2019-05-16T14:12:06.771Z,97540.17
2019-05-16T14:14:07.920Z,97535.03
2019-05-16T14:16:09.511Z,97532.81
2019-05-16T14:18:11.132Z,97536.55
2019-05-16T14:20:14.816Z,97536.05
2019-05-16T14:22:17.239Z,97534.26
2019-05-16T14:24:18.077Z,97538.41
2019-05-16T14:26:17.767Z,97537.08
2019-05-16T14:28:19.398Z,97534.92
2019-05-16T14:30:21.046Z,97537.45
2019-05-16T14:32:22.666Z,97539.59
2019-05-16T14:34:27.661Z,97542.48
2019-05-16T14:36:27.814Z,97539.48
2019-05-16T14:38:27.654Z,97539.05
2019-05-16T14:40:29.360Z,97537.67
2019-05-16T14:42:30.970Z,97541.44
2019-05-16T14:44:32.569Z,97532.48
2019-05-16T14:46:34.178Z,97529.50
2019-05-16T14:48:36.970Z,97533.30
2019-05-16T14:50:37.921Z,97533.77
2019-05-16T14:52:39.089Z,97533.25
2019-05-16T14:54:40.685Z,97529.63
2019-05-16T14:56:42.337Z,97531.21
2019-05-16T14:58:43.938Z,97528.71
2019-05-16T15:00:49.059Z,97529.47
2019-05-16T15:02:47.984Z,97529.05
2019-05-16T15:04:49.519Z,97495.27
2019-05-16T15:06:50.641Z,97532.97
2019-05-16T15:08:52.248Z,97533.05
2019-05-16T15:10:53.847Z,97528.98
2019-05-16T15:12:56.970Z,97508.63
2019-05-16T15:15:02.473Z,97528.91
2019-05-16T15:16:58.931Z,97526.47
2019-05-16T15:19:00.569Z,97527.51
2019-05-16T15:21:02.206Z,97523.80
2019-05-16T15:23:03.871Z,97531.48
2019-05-16T15:25:08.008Z,97529.76
2019-05-16T15:27:08.364Z,97542.09
2019-05-16T15:29:08.860Z,97518.17
2019-05-16T15:31:10.467Z,97527.46
2019-05-16T15:33:12.089Z,97530.41
2019-05-16T15:35:13.708Z,97530.44
2019-05-16T15:37:17.178Z,97526.67
2019-05-16T15:39:17.249Z,97482.40
2019-05-16T15:41:18.784Z,97524.23
2019-05-16T15:43:20.436Z,97525.60
2019-05-16T15:45:34.719Z,97520.64
2019-05-16T15:47:23.717Z,97522.95
2019-05-16T15:49:26.506Z,97520.12
2019-05-16T15:51:27.406Z,97521.59
2019-05-16T15:53:28.633Z,97522.95
2019-05-16T15:55:30.226Z,97517.84
2019-05-16T15:57:31.812Z,97525.34
2019-05-16T15:59:33.426Z,97517.68
2019-05-16T16:01:37.634Z,97515.48
2019-05-16T16:03:38.130Z,97518.84
2019-05-16T16:05:38.466Z,97516.32
2019-05-16T16:07:40.103Z,97513.23
2019-05-16T16:09:41.726Z,97518.75
2019-05-16T16:11:43.322Z,97513.94
2019-05-16T16:13:44.953Z,97499.50
2019-05-16T16:15:53.322Z,97513.41
2019-05-16T16:17:48.245Z,97512.05
2019-05-16T16:19:49.884Z,97506.99
2019-05-16T16:21:51.482Z,97512.28
2019-05-16T16:23:53.079Z,97510.92
2019-05-16T16:25:59.277Z,97510.84
2019-05-16T16:27:57.272Z,97511.69
2019-05-16T16:29:58.043Z,97504.40
2019-05-16T16:31:59.660Z,97497.69
2019-05-16T16:34:01.254Z,97495.67
2019-05-16T16:36:02.873Z,97491.61
2019-05-16T16:38:06.853Z,97496.38
2019-05-16T16:40:11.266Z,97499.94
2019-05-16T16:42:07.896Z,97504.97
2019-05-16T16:44:09.486Z,97495.23
2019-05-16T16:46:13.560Z,97481.90
2019-05-16T16:48:12.765Z,97489.81
2019-05-16T16:50:16.921Z,97505.30
2019-05-16T16:52:16.773Z,97510.78
2019-05-16T16:54:17.737Z,97516.60
2019-05-16T16:56:19.334Z,97504.21
2019-05-16T16:58:20.950Z,97509.45
2019-05-16T17:00:22.571Z,97503.67
2019-05-16T17:02:24.228Z,97504.50
2019-05-16T17:04:26.719Z,97499.83
2019-05-16T17:06:27.550Z,97496.26
2019-05-16T17:08:29.241Z,97498.80
2019-05-16T17:10:30.840Z,97490.36
2019-05-16T17:12:32.473Z,97499.14
2019-05-16T17:14:34.065Z,97493.19
2019-05-16T17:16:37.737Z,97493.19
2019-05-16T17:18:37.478Z,97502.12
2019-05-16T17:20:39.107Z,97496.64
2019-05-16T17:22:40.748Z,97500.16
2019-05-16T17:24:42.331Z,97500.95
2019-05-16T17:26:43.997Z,97506.44
2019-05-16T17:28:46.695Z,97504.42
2019-05-16T17:30:47.328Z,97510.81
2019-05-16T17:32:48.951Z,97509.11
2019-05-16T17:34:50.562Z,97504.88
2019-05-16T17:36:52.251Z,97509.11
2019-05-16T17:38:53.850Z,97504.45
2019-05-16T17:40:57.003Z,97497.80
2019-05-16T17:42:57.170Z,97506.75
2019-05-16T17:44:58.763Z,97505.20
2019-05-16T17:47:00.374Z,97504.12
2019-05-16T17:49:01.976Z,97509.43
2019-05-16T17:51:03.656Z,97513.84
2019-05-16T17:53:07.053Z,97509.66
2019-05-16T17:55:07.416Z,97506.66
2019-05-16T17:57:08.606Z,97512.89
2019-05-16T17:59:10.202Z,97509.41
2019-05-16T18:01:11.798Z,97508.06
2019-05-16T18:03:13.400Z,97505.14
2019-05-16T18:05:16.974Z,97510.27
2019-05-16T18:07:16.709Z,97509.82
2019-05-16T18:09:18.318Z,97508.70
2019-05-16T18:11:19.906Z,97514.70
2019-05-16T18:13:21.516Z,97517.79
2019-05-16T18:15:23.132Z,97519.97
2019-05-16T18:17:26.725Z,97517.92
2019-05-16T18:19:26.553Z,97522.17
2019-05-16T18:21:28.066Z,97519.53
2019-05-16T18:23:29.658Z,97512.63
2019-05-16T18:25:31.245Z,97521.52
2019-05-16T18:27:32.843Z,97518.50
2019-05-16T18:29:36.441Z,97494.06
2019-05-16T18:31:37.250Z,97518.28
2019-05-16T18:33:38.084Z,97516.97
2019-05-16T18:35:39.778Z,97515.18
2019-05-16T18:37:41.452Z,97511.89
2019-05-16T18:39:43.054Z,97516.45
2019-05-16T18:41:47.045Z,97515.53
2019-05-16T18:43:47.247Z,97501.83
2019-05-16T18:45:48.000Z,97513.06
2019-05-16T18:47:49.642Z,97514.92
2019-05-16T18:49:51.248Z,97522.77
2019-05-16T18:51:52.887Z,97514.36
2019-05-16T18:53:54.495Z,97512.67
2019-05-16T18:55:57.069Z,97501.55
2019-05-16T18:57:57.803Z,97506.24
2019-05-16T18:59:59.420Z,97500.74
2019-05-16T19:02:01.072Z,97512.46
2019-05-16T19:04:02.678Z,97511.70
2019-05-16T19:06:04.268Z,97518.20
2019-05-16T19:08:07.377Z,97517.09
2019-05-16T19:10:07.541Z,97519.31
2019-05-16T19:12:09.225Z,97510.95
2019-05-16T19:14:10.841Z,97542.91
2019-05-16T19:16:12.433Z,97522.36
2019-05-16T19:18:14.066Z,97523.03
2019-05-16T19:20:17.187Z,97523.63
2019-05-16T19:22:17.316Z,97524.77
2019-05-16T19:24:18.926Z,97523.31
2019-05-16T19:26:20.537Z,97525.70
2019-05-16T19:28:22.156Z,97536.16
2019-05-16T19:30:26.276Z,97527.52
2019-05-16T19:32:25.426Z,97529.44
2019-05-16T19:34:27.107Z,97522.06
2019-05-16T19:36:28.684Z,97528.80
2019-05-16T19:38:30.340Z,97526.18
2019-05-16T19:40:31.944Z,97529.50
2019-05-16T19:42:33.542Z,97529.56
2019-05-16T19:44:37.066Z,97535.88
2019-05-16T19:46:38.801Z,97524.80
2019-05-16T19:48:38.569Z,97527.42
2019-05-16T19:50:40.283Z,97531.69
2019-05-16T19:52:41.987Z,97530.33
2019-05-16T19:54:43.572Z,97526.47
2019-05-16T19:56:46.943Z,97526.47
2019-05-16T19:58:46.866Z,97525.13
2019-05-16T20:00:48.462Z,97520.86
2019-05-16T20:02:50.105Z,97518.05
2019-05-16T20:04:51.692Z,97514.81
2019-05-16T20:06:53.290Z,97513.23
2019-05-16T20:08:54.903Z,97511.78
2019-05-16T20:10:56.549Z,97516.05
2019-05-16T20:12:58.146Z,97504.12
2019-05-16T20:15:08.041Z,97506.75
2019-05-16T20:17:01.367Z,97505.16
2019-05-16T20:19:02.965Z,97501.55
2019-05-16T20:21:04.589Z,97497.92
2019-05-16T20:23:06.200Z,97503.27
2019-05-16T20:25:07.811Z,97509.77
2019-05-16T20:27:09.410Z,97498.88
2019-05-16T20:29:11.024Z,97499.52
2019-05-16T20:31:12.664Z,97500.56
2019-05-16T20:33:14.335Z,97500.14
2019-05-16T20:35:17.468Z,97502.79
2019-05-16T20:37:17.612Z,97514.02
2019-05-16T20:39:19.225Z,97505.97
2019-05-16T20:41:20.840Z,97511.18
2019-05-16T20:43:22.462Z,97510.88
2019-05-16T20:45:24.080Z,97515.61
2019-05-16T20:47:27.171Z,97513.10
2019-05-16T20:49:27.339Z,97506.73
2019-05-16T20:51:28.943Z,97512.27
2019-05-16T20:53:30.547Z,97515.25
2019-05-16T20:55:32.188Z,97512.70
2019-05-16T20:57:33.813Z,97502.88
2019-05-16T20:59:35.442Z,97500.66
2019-05-16T21:01:37.074Z,97501.50
2019-05-16T21:03:38.670Z,97508.33
2019-05-16T21:05:40.376Z,97508.41
2019-05-16T21:07:42.006Z,97502.02
2019-05-16T21:09:43.632Z,97510.26
2019-05-16T21:11:46.836Z,97514.59
2019-05-16T21:13:49.090Z,97504.35
2019-05-16T21:15:48.747Z,97507.88
2019-05-16T21:17:50.535Z,97487.36
2019-05-16T21:19:52.156Z,97507.63
2019-05-16T21:21:53.766Z,97502.55
2019-05-16T21:23:56.302Z,97500.08
2019-05-16T21:25:57.183Z,97493.55
2019-05-16T21:27:58.696Z,97478.64
2019-05-16T21:30:00.300Z,97493.59
2019-05-16T21:32:01.901Z,97500.39
2019-05-16T21:34:03.508Z,97501.99
2019-05-16T21:36:07.039Z,97503.31
2019-05-16T21:38:08.892Z,97503.38
2019-05-16T21:40:08.519Z,97503.39
2019-05-16T21:42:10.104Z,97506.16
2019-05-16T21:44:11.729Z,97500.63
2019-05-16T21:46:13.355Z,97498.42
2019-05-16T21:48:16.320Z,97495.41
2019-05-16T21:50:19.051Z,97497.52
2019-05-16T21:52:18.306Z,97492.59
2019-05-16T21:54:19.928Z,97495.19
2019-05-16T21:56:21.526Z,97496.58
2019-05-16T21:58:23.122Z,97497.42
2019-05-16T22:00:26.562Z,97500.03
2019-05-16T22:02:26.646Z,97497.00
2019-05-16T22:04:28.075Z,97499.56
2019-05-16T22:06:29.671Z,97499.02
2019-05-16T22:08:31.541Z,97503.36
2019-05-16T22:10:33.179Z,97501.00
2019-05-16T22:12:34.793Z,97494.19
2019-05-16T22:14:36.870Z,97492.02
2019-05-16T22:16:38.055Z,97487.78
2019-05-16T22:18:39.653Z,97480.84
2019-05-16T22:20:41.295Z,97485.08
2019-05-16T22:22:42.963Z,97481.59
2019-05-16T22:24:46.176Z,97490.04
2019-05-16T22:26:46.694Z,97481.58
2019-05-16T22:28:49.499Z,97485.86
2019-05-16T22:30:49.581Z,97487.34
2019-05-16T22:32:51.182Z,97477.61
2019-05-16T22:34:52.773Z,97479.75
2019-05-16T22:36:54.365Z,97483.74
2019-05-16T22:38:56.737Z,97482.95
2019-05-16T22:40:57.640Z,97484.91
2019-05-16T22:42:59.253Z,97478.42
2019-05-16T22:45:00.863Z,97478.76
2019-05-16T22:47:02.476Z,97480.55
2019-05-16T22:49:04.072Z,97475.43
2019-05-16T22:51:07.130Z,97471.17
2019-05-16T22:53:07.668Z,97472.63
2019-05-16T22:55:09.260Z,97470.47
2019-05-16T22:57:10.907Z,97467.19
2019-05-16T22:59:12.503Z,97472.07
2019-05-16T23:01:14.129Z,97465.70
2019-05-16T23:03:17.411Z,97473.68
2019-05-16T23:05:17.448Z,97471.61
2019-05-16T23:07:19.072Z,97515.09
2019-05-16T23:09:20.665Z,97469.50
2019-05-16T23:11:22.268Z,97469.95
2019-05-16T23:13:23.908Z,97466.75
2019-05-16T23:15:26.556Z,97465.31
2019-05-16T23:17:27.236Z,97468.13
2019-05-16T23:19:28.830Z,97464.95
2019-05-16T23:21:30.440Z,97470.67
2019-05-16T23:23:32.084Z,97466.92
2019-05-16T23:25:33.685Z,97466.66
2019-05-16T23:27:36.903Z,97467.16
2019-05-16T23:29:36.992Z,97463.96
2019-05-16T23:31:38.604Z,97456.88
2019-05-16T23:33:40.210Z,97458.09
2019-05-16T23:35:41.860Z,97461.14
2019-05-16T23:37:43.463Z,97454.44
2019-05-16T23:39:47.322Z,97460.48
2019-05-16T23:41:47.396Z,97457.25
2019-05-16T23:43:48.368Z,97450.95
2019-05-16T23:45:49.994Z,97446.02
2019-05-16T23:47:51.626Z,97448.52